Terminal Aerodrome Forecast
Issued by NWS

Home | Current Version | Previous Version | Text Only | Print | Product List | Glossary On
Versions: 1 2 3 4 5 6 7 8 9 10 11 12 13 14 15
000
FTUS45 KRIW 211700
TAFCPR
TAF
KCPR 211720Z 2118/2218 11008KT P6SM SCT090
     FM220000 10011KT P6SM SCT100
     FM220600 17007KT P6SM BKN100
     FM221200 19010KT P6SM VCSH SCT070 OVC150
     FM221600 22012G25KT P6SM -SHRA BKN050 OVC100=

USA.gov is the U.S. government's official web portal to all federal, state and local government web resources and services.